Terminal Aerodrome Forecast
Issued by NWS

Home | Current Version | Previous Version | Text Only | Print | Product List | Glossary On
Versions: 1 2 3 4 5 6 7 8 9 10 11 12 13 14 15
000
FTUS41 KLWX 291720
TAFMTN
TAF
KMTN 291720Z 2918/3018 12005KT P6SM SCT090
     FM291900 13005KT P6SM BKN090
     FM300200 17006KT P6SM SCT250
     FM300900 17006KT P6SM BKN090
     FM301600 18010KT P6SM BKN090=

USA.gov is the U.S. government's official web portal to all federal, state and local government web resources and services.